sensor_id;sensor_type;location;lat;lon;timestamp;temperature;humidity
38458;DHT22;24239;48.058;10.486;2023-08-06T00:00:22;13.40;99.90
38458;DHT22;24239;48.058;10.486;2023-08-06T00:02:49;13.40;99.90
38458;DHT22;24239;48.058;10.486;2023-08-06T00:05:15;13.40;99.90
38458;DHT22;24239;48.058;10.486;2023-08-06T00:07:47;13.40;99.90
38458;DHT22;24239;48.058;10.486;2023-08-06T00:10:13;13.40;99.90
38458;DHT22;24239;48.058;10.486;2023-08-06T00:12:39;13.40;99.90
38458;DHT22;24239;48.058;10.486;2023-08-06T00:15:05;13.30;99.90
38458;DHT22;24239;48.058;10.486;2023-08-06T00:17:31;13.30;99.90
38458;DHT22;24239;48.058;10.486;2023-08-06T00:19:57;13.40;99.90
38458;DHT22;24239;48.058;10.486;2023-08-06T00:22:22;13.40;99.90
38458;DHT22;24239;48.058;10.486;2023-08-06T00:24:48;13.40;99.90
38458;DHT22;24239;48.058;10.486;2023-08-06T00:27:14;13.30;99.90
38458;DHT22;24239;48.058;10.486;2023-08-06T00:29:40;13.30;99.90
38458;DHT22;24239;48.058;10.486;2023-08-06T00:32:06;13.40;99.90
38458;DHT22;24239;48.058;10.486;2023-08-06T00:34:31;13.40;99.90
38458;DHT22;24239;48.058;10.486;2023-08-06T00:36:57;13.40;99.90
38458;DHT22;24239;48.058;10.486;2023-08-06T00:39:23;13.40;99.90
38458;DHT22;24239;48.058;10.486;2023-08-06T00:41:49;13.40;99.90
38458;DHT22;24239;48.058;10.486;2023-08-06T00:44:14;13.30;99.90
38458;DHT22;24239;48.058;10.486;2023-08-06T00:46:40;13.30;99.90
38458;DHT22;24239;48.058;10.486;2023-08-06T00:49:06;13.30;99.90
38458;DHT22;24239;48.058;10.486;2023-08-06T00:51:32;13.30;99.90
38458;DHT22;24239;48.058;10.486;2023-08-06T00:53:59;13.40;99.90
38458;DHT22;24239;48.058;10.486;2023-08-06T00:56:25;13.30;99.90
38458;DHT22;24239;48.058;10.486;2023-08-06T00:58:51;13.40;99.90
38458;DHT22;24239;48.058;10.486;2023-08-06T01:01:17;13.40;99.90
38458;DHT22;24239;48.058;10.486;2023-08-06T01:03:43;13.40;99.90
38458;DHT22;24239;48.058;10.486;2023-08-06T01:06:09;13.40;99.90
38458;DHT22;24239;48.058;10.486;2023-08-06T01:08:47;13.30;99.90
38458;DHT22;24239;48.058;10.486;2023-08-06T01:13:48;13.30;99.90
38458;DHT22;24239;48.058;10.486;2023-08-06T01:16:18;13.20;99.90
38458;DHT22;24239;48.058;10.486;2023-08-06T01:18:44;13.20;99.90
38458;DHT22;24239;48.058;10.486;2023-08-06T01:21:16;13.10;99.90
38458;DHT22;24239;48.058;10.486;2023-08-06T01:23:42;13.10;99.90
38458;DHT22;24239;48.058;10.486;2023-08-06T01:28:56;13.10;99.90
38458;DHT22;24239;48.058;10.486;2023-08-06T01:31:30;13.10;99.90
38458;DHT22;24239;48.058;10.486;2023-08-06T01:33:58;13.10;99.90
38458;DHT22;24239;48.058;10.486;2023-08-06T01:36:25;13.10;99.90
38458;DHT22;24239;48.058;10.486;2023-08-06T01:38:55;13.10;99.90
38458;DHT22;24239;48.058;10.486;2023-08-06T01:41:21;13.10;99.90
38458;DHT22;24239;48.058;10.486;2023-08-06T01:43:47;13.20;99.90
38458;DHT22;24239;48.058;10.486;2023-08-06T01:46:13;13.10;99.90
38458;DHT22;24239;48.058;10.486;2023-08-06T01:48:39;13.20;99.90
38458;DHT22;24239;48.058;10.486;2023-08-06T01:51:05;13.10;99.90
38458;DHT22;24239;48.058;10.486;2023-08-06T01:53:32;13.00;99.90
38458;DHT22;24239;48.058;10.486;2023-08-06T01:55:58;13.10;99.90
38458;DHT22;24239;48.058;10.486;2023-08-06T01:58:24;13.00;99.90
38458;DHT22;24239;48.058;10.486;2023-08-06T02:00:50;13.00;99.90
38458;DHT22;24239;48.058;10.486;2023-08-06T02:03:15;12.90;99.90
38458;DHT22;24239;48.058;10.486;2023-08-06T02:05:41;13.00;99.90
38458;DHT22;24239;48.058;10.486;2023-08-06T02:08:07;12.90;99.90
38458;DHT22;24239;48.058;10.486;2023-08-06T02:10:33;12.90;99.90
38458;DHT22;24239;48.058;10.486;2023-08-06T02:12:59;13.00;99.90
38458;DHT22;24239;48.058;10.486;2023-08-06T02:15:24;12.90;99.90
38458;DHT22;24239;48.058;10.486;2023-08-06T02:17:50;12.90;99.90
38458;DHT22;24239;48.058;10.486;2023-08-06T02:20:16;12.90;99.90
38458;DHT22;24239;48.058;10.486;2023-08-06T02:22:42;12.80;99.90
38458;DHT22;24239;48.058;10.486;2023-08-06T02:25:08;12.90;99.90
38458;DHT22;24239;48.058;10.486;2023-08-06T02:27:33;12.80;99.90
38458;DHT22;24239;48.058;10.486;2023-08-06T02:29:59;12.80;99.90
38458;DHT22;24239;48.058;10.486;2023-08-06T02:32:25;12.70;99.90
38458;DHT22;24239;48.058;10.486;2023-08-06T02:34:51;12.70;99.90
38458;DHT22;24239;48.058;10.486;2023-08-06T02:37:17;12.70;99.90
38458;DHT22;24239;48.058;10.486;2023-08-06T02:39:43;12.60;99.90
38458;DHT22;24239;48.058;10.486;2023-08-06T02:42:09;12.60;99.90
38458;DHT22;24239;48.058;10.486;2023-08-06T02:44:35;12.60;99.90
38458;DHT22;24239;48.058;10.486;2023-08-06T02:47:01;12.60;99.90
38458;DHT22;24239;48.058;10.486;2023-08-06T02:49:27;12.50;99.90
38458;DHT22;24239;48.058;10.486;2023-08-06T02:51:53;12.50;99.90
38458;DHT22;24239;48.058;10.486;2023-08-06T02:54:19;12.50;99.90
38458;DHT22;24239;48.058;10.486;2023-08-06T02:56:46;12.30;99.90
38458;DHT22;24239;48.058;10.486;2023-08-06T02:59:14;12.30;99.90
38458;DHT22;24239;48.058;10.486;2023-08-06T03:01:40;12.20;99.90
38458;DHT22;24239;48.058;10.486;2023-08-06T03:04:06;12.20;99.90
38458;DHT22;24239;48.058;10.486;2023-08-06T03:06:32;12.20;99.90
38458;DHT22;24239;48.058;10.486;2023-08-06T03:08:57;12.20;99.90
38458;DHT22;24239;48.058;10.486;2023-08-06T03:11:23;12.20;99.90
38458;DHT22;24239;48.058;10.486;2023-08-06T03:13:49;12.20;99.90
38458;DHT22;24239;48.058;10.486;2023-08-06T03:16:15;12.10;99.90
38458;DHT22;24239;48.058;10.486;2023-08-06T03:18:41;12.10;99.90
38458;DHT22;24239;48.058;10.486;2023-08-06T03:21:06;12.20;99.90
38458;DHT22;24239;48.058;10.486;2023-08-06T03:23:32;12.20;99.90
38458;DHT22;24239;48.058;10.486;2023-08-06T03:26:02;12.20;99.90
38458;DHT22;24239;48.058;10.486;2023-08-06T03:28:28;12.20;99.90
38458;DHT22;24239;48.058;10.486;2023-08-06T03:31:03;12.20;99.90
38458;DHT22;24239;48.058;10.486;2023-08-06T03:33:30;12.20;99.90
38458;DHT22;24239;48.058;10.486;2023-08-06T03:35:56;12.20;99.90
38458;DHT22;24239;48.058;10.486;2023-08-06T03:38:22;12.20;99.90
38458;DHT22;24239;48.058;10.486;2023-08-06T03:40:48;12.20;99.90
38458;DHT22;24239;48.058;10.486;2023-08-06T03:43:14;12.20;99.90
38458;DHT22;24239;48.058;10.486;2023-08-06T03:45:41;12.20;99.90
38458;DHT22;24239;48.058;10.486;2023-08-06T03:48:07;12.20;99.90
38458;DHT22;24239;48.058;10.486;2023-08-06T03:50:32;12.20;99.90
38458;DHT22;24239;48.058;10.486;2023-08-06T03:52:58;12.20;99.90
38458;DHT22;24239;48.058;10.486;2023-08-06T03:55:24;12.20;99.90
38458;DHT22;24239;48.058;10.486;2023-08-06T03:57:50;12.20;99.90
38458;DHT22;24239;48.058;10.486;2023-08-06T04:00:16;12.30;99.90
38458;DHT22;24239;48.058;10.486;2023-08-06T04:02:42;12.30;99.90
38458;DHT22;24239;48.058;10.486;2023-08-06T04:05:08;12.20;99.90
38458;DHT22;24239;48.058;10.486;2023-08-06T04:07:34;12.20;99.90
38458;DHT22;24239;48.058;10.486;2023-08-06T04:10:03;12.20;99.90
38458;DHT22;24239;48.058;10.486;2023-08-06T04:12:29;12.30;99.90
38458;DHT22;24239;48.058;10.486;2023-08-06T04:14:57;12.30;99.90
38458;DHT22;24239;48.058;10.486;2023-08-06T04:17:23;12.40;99.90
38458;DHT22;24239;48.058;10.486;2023-08-06T04:19:54;12.50;99.90
38458;DHT22;24239;48.058;10.486;2023-08-06T04:22:20;12.50;99.90
38458;DHT22;24239;48.058;10.486;2023-08-06T04:24:47;12.60;99.90
38458;DHT22;24239;48.058;10.486;2023-08-06T04:27:14;12.60;99.90
38458;DHT22;24239;48.058;10.486;2023-08-06T04:29:41;12.70;99.90
38458;DHT22;24239;48.058;10.486;2023-08-06T04:32:10;12.80;99.90
38458;DHT22;24239;48.058;10.486;2023-08-06T04:34:36;12.80;99.90
38458;DHT22;24239;48.058;10.486;2023-08-06T04:37:03;12.90;99.90
38458;DHT22;24239;48.058;10.486;2023-08-06T04:39:29;12.90;99.90
38458;DHT22;24239;48.058;10.486;2023-08-06T04:41:56;12.90;99.90
38458;DHT22;24239;48.058;10.486;2023-08-06T04:44:24;12.90;99.90
38458;DHT22;24239;48.058;10.486;2023-08-06T04:46:50;12.90;99.90
38458;DHT22;24239;48.058;10.486;2023-08-06T04:49:18;12.90;99.90
38458;DHT22;24239;48.058;10.486;2023-08-06T04:51:43;13.00;99.90
38458;DHT22;24239;48.058;10.486;2023-08-06T04:54:10;13.10;99.90
38458;DHT22;24239;48.058;10.486;2023-08-06T04:56:35;13.20;99.90
38458;DHT22;24239;48.058;10.486;2023-08-06T04:59:01;13.30;99.90
38458;DHT22;24239;48.058;10.486;2023-08-06T05:01:27;13.40;99.90
38458;DHT22;24239;48.058;10.486;2023-08-06T05:03:54;13.50;99.90
38458;DHT22;24239;48.058;10.486;2023-08-06T05:06:19;13.60;99.90
38458;DHT22;24239;48.058;10.486;2023-08-06T05:08:45;13.70;99.90
38458;DHT22;24239;48.058;10.486;2023-08-06T05:11:11;13.90;99.90
38458;DHT22;24239;48.058;10.486;2023-08-06T05:13:37;14.20;99.90
38458;DHT22;24239;48.058;10.486;2023-08-06T05:16:03;14.40;99.90
38458;DHT22;24239;48.058;10.486;2023-08-06T05:18:29;14.40;99.90
38458;DHT22;24239;48.058;10.486;2023-08-06T05:20:56;14.40;99.90
38458;DHT22;24239;48.058;10.486;2023-08-06T05:23:22;14.40;99.90
38458;DHT22;24239;48.058;10.486;2023-08-06T05:25:48;14.30;99.90
38458;DHT22;24239;48.058;10.486;2023-08-06T05:28:14;14.30;99.90
38458;DHT22;24239;48.058;10.486;2023-08-06T05:30:40;14.30;99.90
38458;DHT22;24239;48.058;10.486;2023-08-06T05:33:06;14.30;99.90
38458;DHT22;24239;48.058;10.486;2023-08-06T05:35:32;14.20;99.90
38458;DHT22;24239;48.058;10.486;2023-08-06T05:37:57;14.20;99.90
38458;DHT22;24239;48.058;10.486;2023-08-06T05:40:23;14.20;99.90
38458;DHT22;24239;48.058;10.486;2023-08-06T05:42:53;14.20;99.90
38458;DHT22;24239;48.058;10.486;2023-08-06T05:45:19;14.20;99.90
38458;DHT22;24239;48.058;10.486;2023-08-06T05:47:45;14.20;99.90
38458;DHT22;24239;48.058;10.486;2023-08-06T05:50:13;14.00;99.90
38458;DHT22;24239;48.058;10.486;2023-08-06T05:52:38;14.00;99.90
38458;DHT22;24239;48.058;10.486;2023-08-06T05:55:05;14.00;99.90
38458;DHT22;24239;48.058;10.486;2023-08-06T05:57:30;13.80;99.90
38458;DHT22;24239;48.058;10.486;2023-08-06T05:59:56;13.80;99.90
38458;DHT22;24239;48.058;10.486;2023-08-06T06:02:22;13.80;99.90
38458;DHT22;24239;48.058;10.486;2023-08-06T06:04:48;13.70;99.90
38458;DHT22;24239;48.058;10.486;2023-08-06T06:07:14;13.60;99.90
38458;DHT22;24239;48.058;10.486;2023-08-06T06:09:40;13.60;99.90
38458;DHT22;24239;48.058;10.486;2023-08-06T06:12:06;13.50;99.90
38458;DHT22;24239;48.058;10.486;2023-08-06T06:14:32;13.50;99.90
38458;DHT22;24239;48.058;10.486;2023-08-06T06:16:58;13.50;99.90
38458;DHT22;24239;48.058;10.486;2023-08-06T06:19:27;13.40;99.90
38458;DHT22;24239;48.058;10.486;2023-08-06T06:21:53;13.40;99.90
38458;DHT22;24239;48.058;10.486;2023-08-06T06:24:19;13.40;99.90
38458;DHT22;24239;48.058;10.486;2023-08-06T06:26:44;13.30;99.90
38458;DHT22;24239;48.058;10.486;2023-08-06T06:29:10;13.30;99.90
38458;DHT22;24239;48.058;10.486;2023-08-06T06:31:36;13.30;99.90
38458;DHT22;24239;48.058;10.486;2023-08-06T06:34:01;13.40;99.90
38458;DHT22;24239;48.058;10.486;2023-08-06T06:36:27;13.40;99.90
38458;DHT22;24239;48.058;10.486;2023-08-06T06:38:53;13.50;99.90
38458;DHT22;24239;48.058;10.486;2023-08-06T06:41:18;13.60;99.90
38458;DHT22;24239;48.058;10.486;2023-08-06T06:43:44;13.70;99.90
38458;DHT22;24239;48.058;10.486;2023-08-06T06:46:10;14.00;99.90
38458;DHT22;24239;48.058;10.486;2023-08-06T06:48:36;14.10;99.90
38458;DHT22;24239;48.058;10.486;2023-08-06T06:51:02;14.10;99.90
38458;DHT22;24239;48.058;10.486;2023-08-06T06:53:28;14.00;99.90
38458;DHT22;24239;48.058;10.486;2023-08-06T06:55:55;14.00;99.90
38458;DHT22;24239;48.058;10.486;2023-08-06T06:58:20;14.00;99.90
38458;DHT22;24239;48.058;10.486;2023-08-06T07:00:49;14.10;99.90
38458;DHT22;24239;48.058;10.486;2023-08-06T07:03:15;14.20;99.90
38458;DHT22;24239;48.058;10.486;2023-08-06T07:05:43;14.20;99.90
38458;DHT22;24239;48.058;10.486;2023-08-06T07:08:09;14.20;99.90
38458;DHT22;24239;48.058;10.486;2023-08-06T07:10:34;14.20;99.90
38458;DHT22;24239;48.058;10.486;2023-08-06T07:13:00;14.20;99.90
38458;DHT22;24239;48.058;10.486;2023-08-06T07:15:26;14.30;99.90
38458;DHT22;24239;48.058;10.486;2023-08-06T07:17:52;14.30;99.90
38458;DHT22;24239;48.058;10.486;2023-08-06T07:20:17;14.30;99.90
38458;DHT22;24239;48.058;10.486;2023-08-06T07:22:44;14.30;99.90
38458;DHT22;24239;48.058;10.486;2023-08-06T07:25:10;14.30;99.90
38458;DHT22;24239;48.058;10.486;2023-08-06T07:27:35;14.40;99.90
38458;DHT22;24239;48.058;10.486;2023-08-06T07:30:02;14.40;99.90
38458;DHT22;24239;48.058;10.486;2023-08-06T07:32:27;14.40;99.90
38458;DHT22;24239;48.058;10.486;2023-08-06T07:34:53;14.60;99.90
38458;DHT22;24239;48.058;10.486;2023-08-06T07:37:26;14.60;99.90
38458;DHT22;24239;48.058;10.486;2023-08-06T07:39:54;14.70;99.90
38458;DHT22;24239;48.058;10.486;2023-08-06T07:42:20;14.80;99.90
38458;DHT22;24239;48.058;10.486;2023-08-06T07:44:54;14.90;99.90
38458;DHT22;24239;48.058;10.486;2023-08-06T07:47:21;15.10;99.90
38458;DHT22;24239;48.058;10.486;2023-08-06T07:49:47;15.20;99.90
38458;DHT22;24239;48.058;10.486;2023-08-06T07:52:13;15.20;99.90
38458;DHT22;24239;48.058;10.486;2023-08-06T07:54:39;15.00;99.90
38458;DHT22;24239;48.058;10.486;2023-08-06T07:57:07;14.90;99.90
38458;DHT22;24239;48.058;10.486;2023-08-06T07:59:33;14.70;99.90
38458;DHT22;24239;48.058;10.486;2023-08-06T08:02:02;14.60;99.90
38458;DHT22;24239;48.058;10.486;2023-08-06T08:04:28;14.60;99.90
38458;DHT22;24239;48.058;10.486;2023-08-06T08:06:53;14.50;99.90
38458;DHT22;24239;48.058;10.486;2023-08-06T08:09:19;14.40;99.90
38458;DHT22;24239;48.058;10.486;2023-08-06T08:11:45;14.50;99.90
38458;DHT22;24239;48.058;10.486;2023-08-06T08:14:12;14.60;99.90
38458;DHT22;24239;48.058;10.486;2023-08-06T08:16:38;14.70;99.90
38458;DHT22;24239;48.058;10.486;2023-08-06T08:19:04;14.80;99.90
38458;DHT22;24239;48.058;10.486;2023-08-06T08:21:30;14.80;99.90
38458;DHT22;24239;48.058;10.486;2023-08-06T08:23:55;14.80;99.90
38458;DHT22;24239;48.058;10.486;2023-08-06T08:26:21;14.70;99.90
38458;DHT22;24239;48.058;10.486;2023-08-06T08:28:47;14.60;99.90
38458;DHT22;24239;48.058;10.486;2023-08-06T08:31:13;14.60;99.90
38458;DHT22;24239;48.058;10.486;2023-08-06T08:33:39;14.60;99.90
38458;DHT22;24239;48.058;10.486;2023-08-06T08:36:05;14.70;99.90
38458;DHT22;24239;48.058;10.486;2023-08-06T08:38:31;14.50;99.90
38458;DHT22;24239;48.058;10.486;2023-08-06T08:40:57;14.40;99.90
38458;DHT22;24239;48.058;10.486;2023-08-06T08:43:23;14.40;99.90
38458;DHT22;24239;48.058;10.486;2023-08-06T08:45:56;14.40;99.90
38458;DHT22;24239;48.058;10.486;2023-08-06T08:48:24;14.50;99.90
38458;DHT22;24239;48.058;10.486;2023-08-06T08:50:55;14.50;99.90
38458;DHT22;24239;48.058;10.486;2023-08-06T08:53:21;14.50;99.90
38458;DHT22;24239;48.058;10.486;2023-08-06T08:55:49;14.50;99.90
38458;DHT22;24239;48.058;10.486;2023-08-06T08:58:18;14.70;99.90
38458;DHT22;24239;48.058;10.486;2023-08-06T09:00:45;14.70;99.90
38458;DHT22;24239;48.058;10.486;2023-08-06T09:03:15;14.90;99.90
38458;DHT22;24239;48.058;10.486;2023-08-06T09:05:44;15.00;99.90
38458;DHT22;24239;48.058;10.486;2023-08-06T09:08:13;14.90;99.90
38458;DHT22;24239;48.058;10.486;2023-08-06T09:10:41;14.90;99.90
38458;DHT22;24239;48.058;10.486;2023-08-06T09:13:08;15.00;99.90
38458;DHT22;24239;48.058;10.486;2023-08-06T09:15:34;15.20;99.90
38458;DHT22;24239;48.058;10.486;2023-08-06T09:18:00;15.30;99.90
38458;DHT22;24239;48.058;10.486;2023-08-06T09:20:34;15.30;99.90
38458;DHT22;24239;48.058;10.486;2023-08-06T09:23:09;15.20;99.90
38458;DHT22;24239;48.058;10.486;2023-08-06T09:25:38;15.10;99.90
38458;DHT22;24239;48.058;10.486;2023-08-06T09:28:05;15.10;99.90
38458;DHT22;24239;48.058;10.486;2023-08-06T09:30:32;15.00;99.90
38458;DHT22;24239;48.058;10.486;2023-08-06T09:32:59;15.00;99.90
38458;DHT22;24239;48.058;10.486;2023-08-06T09:35:29;15.00;99.90
38458;DHT22;24239;48.058;10.486;2023-08-06T09:37:56;15.20;99.90
38458;DHT22;24239;48.058;10.486;2023-08-06T09:40:31;15.30;99.90
38458;DHT22;24239;48.058;10.486;2023-08-06T09:42:58;15.40;99.90
38458;DHT22;24239;48.058;10.486;2023-08-06T09:45:32;15.50;99.90
38458;DHT22;24239;48.058;10.486;2023-08-06T09:47:59;15.50;99.90
38458;DHT22;24239;48.058;10.486;2023-08-06T09:50:33;15.30;99.90
38458;DHT22;24239;48.058;10.486;2023-08-06T09:53:02;15.20;99.90
38458;DHT22;24239;48.058;10.486;2023-08-06T09:55:28;15.00;99.90
38458;DHT22;24239;48.058;10.486;2023-08-06T09:57:54;15.00;99.90
38458;DHT22;24239;48.058;10.486;2023-08-06T10:00:21;15.10;99.90
38458;DHT22;24239;48.058;10.486;2023-08-06T10:02:47;15.10;99.90
38458;DHT22;24239;48.058;10.486;2023-08-06T10:05:15;15.20;99.90
38458;DHT22;24239;48.058;10.486;2023-08-06T10:07:43;15.20;99.90
38458;DHT22;24239;48.058;10.486;2023-08-06T10:10:10;15.00;99.90
38458;DHT22;24239;48.058;10.486;2023-08-06T10:12:40;14.70;99.90
38458;DHT22;24239;48.058;10.486;2023-08-06T10:15:13;14.50;99.90
38458;DHT22;24239;48.058;10.486;2023-08-06T10:17:40;14.30;99.90
38458;DHT22;24239;48.058;10.486;2023-08-06T10:20:08;14.20;99.90
38458;DHT22;24239;48.058;10.486;2023-08-06T10:22:34;14.00;99.90
38458;DHT22;24239;48.058;10.486;2023-08-06T10:25:01;13.90;99.90
38458;DHT22;24239;48.058;10.486;2023-08-06T10:27:35;14.00;99.90
38458;DHT22;24239;48.058;10.486;2023-08-06T10:32:47;13.90;99.90
38458;DHT22;24239;48.058;10.486;2023-08-06T10:35:37;13.90;99.90
38458;DHT22;24239;48.058;10.486;2023-08-06T10:40:29;13.80;99.90
38458;DHT22;24239;48.058;10.486;2023-08-06T10:42:59;13.80;99.90
38458;DHT22;24239;48.058;10.486;2023-08-06T10:45:25;14.00;99.90
38458;DHT22;24239;48.058;10.486;2023-08-06T10:47:55;14.00;99.90
38458;DHT22;24239;48.058;10.486;2023-08-06T10:50:23;14.10;99.90
38458;DHT22;24239;48.058;10.486;2023-08-06T10:52:49;14.10;99.90
38458;DHT22;24239;48.058;10.486;2023-08-06T10:55:25;14.40;99.90
38458;DHT22;24239;48.058;10.486;2023-08-06T10:57:51;14.70;99.90
38458;DHT22;24239;48.058;10.486;2023-08-06T11:00:18;14.70;99.90
38458;DHT22;24239;48.058;10.486;2023-08-06T11:02:44;14.90;99.90
38458;DHT22;24239;48.058;10.486;2023-08-06T11:05:12;15.00;99.90
38458;DHT22;24239;48.058;10.486;2023-08-06T11:07:38;15.10;99.90
38458;DHT22;24239;48.058;10.486;2023-08-06T11:10:09;15.00;99.90
38458;DHT22;24239;48.058;10.486;2023-08-06T11:12:35;15.00;99.90
38458;DHT22;24239;48.058;10.486;2023-08-06T11:15:03;14.80;99.90
38458;DHT22;24239;48.058;10.486;2023-08-06T11:17:31;14.80;99.90
38458;DHT22;24239;48.058;10.486;2023-08-06T11:19:59;14.60;99.90
38458;DHT22;24239;48.058;10.486;2023-08-06T11:22:26;14.50;99.90
38458;DHT22;24239;48.058;10.486;2023-08-06T11:24:53;14.50;99.90
38458;DHT22;24239;48.058;10.486;2023-08-06T11:27:19;14.80;99.90
38458;DHT22;24239;48.058;10.486;2023-08-06T11:29:45;15.00;99.90
38458;DHT22;24239;48.058;10.486;2023-08-06T11:32:12;15.20;99.90
38458;DHT22;24239;48.058;10.486;2023-08-06T11:34:39;15.40;99.90
38458;DHT22;24239;48.058;10.486;2023-08-06T11:37:06;15.50;99.90
38458;DHT22;24239;48.058;10.486;2023-08-06T11:39:33;15.50;99.90
38458;DHT22;24239;48.058;10.486;2023-08-06T11:42:02;15.60;99.90
38458;DHT22;24239;48.058;10.486;2023-08-06T11:44:33;15.60;99.90
38458;DHT22;24239;48.058;10.486;2023-08-06T11:47:02;15.50;99.90
38458;DHT22;24239;48.058;10.486;2023-08-06T11:49:50;15.50;99.90
38458;DHT22;24239;48.058;10.486;2023-08-06T11:52:18;15.50;99.90
38458;DHT22;24239;48.058;10.486;2023-08-06T11:54:46;15.20;99.90
38458;DHT22;24239;48.058;10.486;2023-08-06T11:57:13;15.00;99.90
38458;DHT22;24239;48.058;10.486;2023-08-06T11:59:42;14.60;99.90
38458;DHT22;24239;48.058;10.486;2023-08-06T12:02:09;14.40;99.90
38458;DHT22;24239;48.058;10.486;2023-08-06T12:05:02;14.20;99.90
38458;DHT22;24239;48.058;10.486;2023-08-06T12:07:36;14.00;99.90
38458;DHT22;24239;48.058;10.486;2023-08-06T12:10:02;13.70;99.90
38458;DHT22;24239;48.058;10.486;2023-08-06T12:12:31;13.50;99.90
38458;DHT22;24239;48.058;10.486;2023-08-06T12:14:57;13.50;99.90
38458;DHT22;24239;48.058;10.486;2023-08-06T12:17:25;13.30;99.90
38458;DHT22;24239;48.058;10.486;2023-08-06T12:19:51;13.20;99.90
38458;DHT22;24239;48.058;10.486;2023-08-06T12:22:17;13.00;99.90
38458;DHT22;24239;48.058;10.486;2023-08-06T12:24:45;12.90;99.90
38458;DHT22;24239;48.058;10.486;2023-08-06T12:27:14;12.90;99.90
38458;DHT22;24239;48.058;10.486;2023-08-06T12:29:43;12.90;99.90
38458;DHT22;24239;48.058;10.486;2023-08-06T12:32:13;12.90;99.90
38458;DHT22;24239;48.058;10.486;2023-08-06T12:34:39;12.90;99.90
38458;DHT22;24239;48.058;10.486;2023-08-06T12:37:06;12.90;99.90
38458;DHT22;24239;48.058;10.486;2023-08-06T12:39:33;13.10;99.90
38458;DHT22;24239;48.058;10.486;2023-08-06T12:42:00;13.30;99.90
38458;DHT22;24239;48.058;10.486;2023-08-06T12:44:26;13.50;99.90
38458;DHT22;24239;48.058;10.486;2023-08-06T12:46:53;13.80;99.90
38458;DHT22;24239;48.058;10.486;2023-08-06T12:49:19;13.90;99.90
38458;DHT22;24239;48.058;10.486;2023-08-06T12:51:47;13.90;99.90
38458;DHT22;24239;48.058;10.486;2023-08-06T12:54:13;13.70;99.90
38458;DHT22;24239;48.058;10.486;2023-08-06T12:56:39;13.70;99.90
38458;DHT22;24239;48.058;10.486;2023-08-06T12:59:05;13.50;99.90
38458;DHT22;24239;48.058;10.486;2023-08-06T13:01:30;13.30;99.90
38458;DHT22;24239;48.058;10.486;2023-08-06T13:03:57;13.20;99.90
38458;DHT22;24239;48.058;10.486;2023-08-06T13:06:23;13.30;99.90
38458;DHT22;24239;48.058;10.486;2023-08-06T13:08:49;13.30;99.90
38458;DHT22;24239;48.058;10.486;2023-08-06T13:11:15;13.40;99.90
38458;DHT22;24239;48.058;10.486;2023-08-06T13:13:40;13.50;99.90
38458;DHT22;24239;48.058;10.486;2023-08-06T13:16:06;13.50;99.90
38458;DHT22;24239;48.058;10.486;2023-08-06T13:18:32;13.60;99.90
38458;DHT22;24239;48.058;10.486;2023-08-06T13:20:58;13.80;99.90
38458;DHT22;24239;48.058;10.486;2023-08-06T13:23:24;13.80;99.90
38458;DHT22;24239;48.058;10.486;2023-08-06T13:25:50;13.80;99.90
38458;DHT22;24239;48.058;10.486;2023-08-06T13:28:15;13.80;99.90
38458;DHT22;24239;48.058;10.486;2023-08-06T13:30:41;13.80;99.90
38458;DHT22;24239;48.058;10.486;2023-08-06T13:33:08;13.80;99.90
38458;DHT22;24239;48.058;10.486;2023-08-06T13:35:34;13.90;99.90
38458;DHT22;24239;48.058;10.486;2023-08-06T13:38:00;14.00;99.90
38458;DHT22;24239;48.058;10.486;2023-08-06T13:40:29;14.10;99.90
38458;DHT22;24239;48.058;10.486;2023-08-06T13:42:55;14.20;99.90
38458;DHT22;24239;48.058;10.486;2023-08-06T13:45:46;14.30;99.90
38458;DHT22;24239;48.058;10.486;2023-08-06T13:48:12;14.40;99.90
38458;DHT22;24239;48.058;10.486;2023-08-06T13:50:40;14.20;99.90
38458;DHT22;24239;48.058;10.486;2023-08-06T13:53:09;14.10;99.90
38458;DHT22;24239;48.058;10.486;2023-08-06T13:55:35;14.00;99.90
38458;DHT22;24239;48.058;10.486;2023-08-06T13:58:04;13.90;99.90
38458;DHT22;24239;48.058;10.486;2023-08-06T14:00:36;13.80;99.90
38458;DHT22;24239;48.058;10.486;2023-08-06T14:03:02;13.70;99.90
38458;DHT22;24239;48.058;10.486;2023-08-06T14:05:28;13.60;99.90
38458;DHT22;24239;48.058;10.486;2023-08-06T14:07:54;13.50;99.90
38458;DHT22;24239;48.058;10.486;2023-08-06T14:10:20;13.40;99.90
38458;DHT22;24239;48.058;10.486;2023-08-06T14:12:49;13.30;99.90
38458;DHT22;24239;48.058;10.486;2023-08-06T14:15:14;13.10;99.90
38458;DHT22;24239;48.058;10.486;2023-08-06T14:17:40;13.10;99.90
38458;DHT22;24239;48.058;10.486;2023-08-06T14:20:06;13.00;99.90
38458;DHT22;24239;48.058;10.486;2023-08-06T14:22:34;13.00;99.90
38458;DHT22;24239;48.058;10.486;2023-08-06T14:25:00;13.00;99.90
38458;DHT22;24239;48.058;10.486;2023-08-06T14:27:26;12.90;99.90
38458;DHT22;24239;48.058;10.486;2023-08-06T14:29:52;13.00;99.90
38458;DHT22;24239;48.058;10.486;2023-08-06T14:32:17;13.00;99.90
38458;DHT22;24239;48.058;10.486;2023-08-06T14:34:44;13.00;99.90
38458;DHT22;24239;48.058;10.486;2023-08-06T14:37:10;13.10;99.90
38458;DHT22;24239;48.058;10.486;2023-08-06T14:39:36;13.20;99.90
38458;DHT22;24239;48.058;10.486;2023-08-06T14:42:05;13.30;99.90
38458;DHT22;24239;48.058;10.486;2023-08-06T14:44:34;13.50;99.90
38458;DHT22;24239;48.058;10.486;2023-08-06T14:47:00;13.70;99.90
38458;DHT22;24239;48.058;10.486;2023-08-06T14:49:25;14.00;99.90
38458;DHT22;24239;48.058;10.486;2023-08-06T14:51:54;14.30;99.90
38458;DHT22;24239;48.058;10.486;2023-08-06T14:54:20;14.30;99.90
38458;DHT22;24239;48.058;10.486;2023-08-06T14:56:45;14.30;99.90
38458;DHT22;24239;48.058;10.486;2023-08-06T14:59:11;14.20;99.90
38458;DHT22;24239;48.058;10.486;2023-08-06T15:01:37;14.00;99.90
38458;DHT22;24239;48.058;10.486;2023-08-06T15:04:03;13.70;99.90
38458;DHT22;24239;48.058;10.486;2023-08-06T15:06:29;13.50;99.90
38458;DHT22;24239;48.058;10.486;2023-08-06T15:08:55;13.30;99.90
38458;DHT22;24239;48.058;10.486;2023-08-06T15:11:23;13.20;99.90
38458;DHT22;24239;48.058;10.486;2023-08-06T15:13:53;13.10;99.90
38458;DHT22;24239;48.058;10.486;2023-08-06T15:16:19;13.20;99.90
38458;DHT22;24239;48.058;10.486;2023-08-06T15:18:44;13.30;99.90
38458;DHT22;24239;48.058;10.486;2023-08-06T15:21:10;13.40;99.90
38458;DHT22;24239;48.058;10.486;2023-08-06T15:23:36;13.70;99.90